Time;durP1;ratioP1;P1;durP2;ratioP2;P2;SDS_P1;SDS_P2;PMS_P1;PMS_P2;Temp;Humidity;BMP_temperature;BMP_pressure;BME280_temperature;BME280_humidity;BME280_pressure;Samples;Min_cycle;Max_cycle;Signal;HPM_P1;HPM_P2
2023/08/06 00:00:16;;;;;;;13.80;8.40;;;;;;;21.03;55.63;92559.16;5056375;28;20071;-91
2023/08/06 00:02:41;;;;;;;14.85;8.95;;;;;;;21.02;55.74;92557.69;5061214;28;20310;-91
2023/08/06 00:05:08;;;;;;;14.90;9.40;;;;;;;21.01;55.71;92553.47;5078173;28;20070;-92
2023/08/06 00:07:33;;;;;;;12.25;9.13;;;;;;;21.04;55.73;92562.66;5050586;28;20552;-90
2023/08/06 00:09:59;;;;;;;18.75;10.50;;;;;;;21.04;55.61;92559.91;5061743;28;20037;-92
2023/08/06 00:12:25;;;;;;;12.48;9.48;;;;;;;21.05;55.77;92553.84;5041268;28;20068;-92
2023/08/06 00:14:51;;;;;;;15.88;10.05;;;;;;;21.05;55.74;92561.38;5064017;28;20048;-90
2023/08/06 00:17:17;;;;;;;12.30;8.77;;;;;;;21.03;55.63;92548.16;5064389;28;20040;-92
2023/08/06 00:19:42;;;;;;;13.32;9.25;;;;;;;21.03;55.62;92552.94;5065383;28;20086;-91
2023/08/06 00:22:07;;;;;;;11.35;8.90;;;;;;;21.03;55.46;92550.91;5080466;28;20044;-91
2023/08/06 00:24:34;;;;;;;13.63;7.90;;;;;;;21.03;55.65;92553.66;5027335;28;20040;-90
2023/08/06 00:27:00;;;;;;;13.82;8.63;;;;;;;21.03;55.75;92550.19;5043133;28;20080;-91
2023/08/06 00:29:25;;;;;;;12.43;8.80;;;;;;;21.02;55.75;92551.47;5026982;28;20045;-90
2023/08/06 00:31:51;;;;;;;15.35;8.52;;;;;;;21.04;55.63;92554.41;5010701;28;20053;-92
2023/08/06 00:34:16;;;;;;;15.23;9.35;;;;;;;21.03;55.62;92548.16;5011820;28;20547;-93
2023/08/06 00:36:41;;;;;;;14.00;8.60;;;;;;;21.03;55.43;92545.41;5029943;28;20044;-92
2023/08/06 00:39:07;;;;;;;15.23;9.27;;;;;;;21.03;55.69;92545.41;5030846;28;20081;-92
2023/08/06 00:41:34;;;;;;;14.10;8.25;;;;;;;21.02;55.62;92548.72;5043538;28;20075;-90
2023/08/06 00:44:00;;;;;;;14.57;8.65;;;;;;;21.01;55.44;92544.50;5024565;28;20061;-91
2023/08/06 00:46:34;;;;;;;12.93;8.65;;;;;;;21.00;55.67;92538.28;5020409;28;20041;-90
2023/08/06 00:49:00;;;;;;;12.88;8.27;;;;;;;21.00;55.54;92535.53;5044469;28;20045;-90
2023/08/06 00:51:26;;;;;;;13.70;8.98;;;;;;;21.00;55.84;92537.56;5025839;28;20037;-89
2023/08/06 00:53:52;;;;;;;12.73;8.30;;;;;;;21.01;55.65;92536.25;5016968;28;20083;-92
2023/08/06 00:56:27;;;;;;;12.27;7.50;;;;;;;21.00;55.83;92534.81;5040095;28;20033;-92
2023/08/06 00:58:52;;;;;;;12.88;8.40;;;;;;;20.99;55.89;92523.09;5061757;28;20558;-92
2023/08/06 01:01:17;;;;;;;11.25;7.93;;;;;;;20.98;55.71;92526.38;5080825;28;20036;-89
2023/08/06 01:03:43;;;;;;;11.57;7.65;;;;;;;21.00;55.65;92519.03;5081051;28;20052;-90
2023/08/06 01:06:08;;;;;;;13.57;8.20;;;;;;;21.00;55.59;92521.09;5047880;28;20039;-91
2023/08/06 01:08:54;;;;;;;11.93;8.18;;;;;;;20.99;55.62;92514.13;5045067;28;20033;-93
2023/08/06 01:12:01;;;;;;;12.00;7.18;;;;;;;21.00;55.62;92518.34;5081002;28;20060;-91
2023/08/06 01:14:30;;;;;;;12.35;7.47;;;;;;;20.97;55.51;92509.16;5007152;28;20729;-89
2023/08/06 01:16:56;;;;;;;10.25;7.80;;;;;;;20.96;55.70;92513.19;5016038;28;20052;-90
2023/08/06 01:19:21;;;;;;;12.60;8.20;;;;;;;20.98;55.52;92505.16;5008261;28;20038;-91
2023/08/06 01:21:46;;;;;;;11.85;7.82;;;;;;;20.97;55.57;92511.19;5016444;28;20648;-91
2023/08/06 01:24:12;;;;;;;14.40;7.72;;;;;;;20.96;55.75;92493.97;4991740;28;20049;-92
2023/08/06 01:26:41;;;;;;;14.90;8.43;;;;;;;20.96;55.66;92504.97;5016239;28;20543;-90
2023/08/06 01:29:17;;;;;;;11.85;7.32;;;;;;;20.97;55.51;92500.19;4996308;28;20046;-90
2023/08/06 01:31:43;;;;;;;14.45;8.07;;;;;;;20.97;55.75;92494.69;5020994;28;20053;-91
2023/08/06 01:34:16;;;;;;;13.23;8.05;;;;;;;20.98;55.58;92498.91;5009451;28;20049;-91
2023/08/06 01:36:41;;;;;;;13.32;7.60;;;;;;;20.97;55.51;92498.19;5006059;28;20046;-91
2023/08/06 01:39:07;;;;;;;12.48;7.70;;;;;;;20.96;55.87;92493.22;5016788;28;20054;-90
2023/08/06 01:41:32;;;;;;;10.90;7.50;;;;;;;20.96;55.60;92499.47;5024731;28;20049;-90
2023/08/06 01:43:59;;;;;;;11.77;7.80;;;;;;;20.96;55.87;92482.97;5016468;28;20046;-92
2023/08/06 01:46:24;;;;;;;11.07;7.28;;;;;;;20.95;55.54;92481.50;5035863;28;20040;-91
2023/08/06 01:48:49;;;;;;;11.00;7.45;;;;;;;20.97;55.64;92489.19;5055846;28;20033;-92
2023/08/06 01:51:15;;;;;;;15.77;8.45;;;;;;;20.98;55.63;92490.66;5082746;28;20127;-92
2023/08/06 01:53:40;;;;;;;14.80;7.93;;;;;;;20.95;55.58;92495.25;5043205;28;20037;-90
2023/08/06 01:56:08;;;;;;;8.05;6.55;;;;;;;20.97;55.67;92495.44;5061917;28;20492;-91
2023/08/06 01:58:33;;;;;;;12.90;7.95;;;;;;;20.95;55.79;92486.28;5039582;28;20048;-90
2023/08/06 02:00:59;;;;;;;11.88;7.22;;;;;;;20.97;55.48;92476.19;5061528;28;20052;-92
2023/08/06 02:03:24;;;;;;;14.88;8.02;;;;;;;20.98;55.64;92479.69;5059449;28;20043;-91
2023/08/06 02:05:50;;;;;;;12.40;7.72;;;;;;;20.96;55.71;92474.72;5063002;28;20385;-91
2023/08/06 02:08:15;;;;;;;11.68;8.10;;;;;;;20.97;55.47;92465.22;5066345;28;20047;-91
2023/08/06 02:10:41;;;;;;;11.30;6.97;;;;;;;20.96;55.65;92476.75;5066915;28;20052;-92
2023/08/06 02:13:07;;;;;;;11.90;7.35;;;;;;;20.95;55.74;92476.00;5008226;28;20057;-89
2023/08/06 02:15:32;;;;;;;10.07;7.47;;;;;;;20.98;55.59;92471.44;5005841;28;20511;-90
2023/08/06 02:17:58;;;;;;;9.27;6.43;;;;;;;20.94;55.58;92474.53;4987402;28;20057;-91
2023/08/06 02:20:23;;;;;;;12.93;7.53;;;;;;;20.95;55.52;92467.03;5020613;28;20092;-92
2023/08/06 02:22:58;;;;;;;10.27;7.20;;;;;;;20.96;55.47;92463.00;5019466;28;20076;-90
2023/08/06 02:25:25;;;;;;;9.82;7.15;;;;;;;20.95;55.85;92459.53;5018029;28;20038;-92
2023/08/06 02:27:51;;;;;;;10.73;6.80;;;;;;;20.95;55.61;92462.28;5002198;28;20148;-90
2023/08/06 02:30:16;;;;;;;10.02;6.47;;;;;;;20.95;55.49;92456.78;5001617;28;20038;-91
2023/08/06 02:32:42;;;;;;;11.82;6.78;;;;;;;20.95;55.60;92456.03;5013264;28;20050;-91
2023/08/06 02:35:07;;;;;;;8.35;6.22;;;;;;;20.97;55.51;92465.22;4984492;28;20059;-91
2023/08/06 02:37:34;;;;;;;10.10;6.65;;;;;;;20.95;55.55;92454.03;5034869;28;20033;-89
2023/08/06 02:39:59;;;;;;;12.93;6.97;;;;;;;20.96;55.47;92455.50;5034252;28;20797;-89
2023/08/06 02:42:26;;;;;;;10.23;7.47;;;;;;;20.95;55.69;92454.03;5034684;28;20037;-93
2023/08/06 02:44:52;;;;;;;9.57;6.70;;;;;;;20.96;55.48;92463.00;5017171;28;20072;-90
2023/08/06 02:47:17;;;;;;;10.13;6.68;;;;;;;20.94;55.61;92458.06;5017076;28;20052;-90
2023/08/06 02:49:43;;;;;;;9.25;6.75;;;;;;;20.94;55.37;92447.06;4997805;28;20534;-91
2023/08/06 02:52:08;;;;;;;9.30;6.50;;;;;;;20.93;55.45;92448.34;5038482;28;20037;-92
2023/08/06 02:54:34;;;;;;;11.30;6.47;;;;;;;20.95;55.59;92445.06;5014661;28;20045;-92
2023/08/06 02:56:59;;;;;;;8.82;6.38;;;;;;;20.93;55.50;92448.34;5052223;28;20055;-92
2023/08/06 02:59:25;;;;;;;9.82;6.70;;;;;;;20.95;55.56;92448.53;5030232;28;20389;-92
2023/08/06 03:01:50;;;;;;;9.80;6.95;;;;;;;20.95;55.68;92448.53;5045933;28;20040;-91
2023/08/06 03:04:17;;;;;;;9.63;6.03;;;;;;;20.95;55.48;92447.81;5062352;28;20040;-91
2023/08/06 03:06:43;;;;;;;10.50;6.97;;;;;;;20.92;55.58;92433.16;5045429;28;20036;-93
2023/08/06 03:09:08;;;;;;;8.57;6.20;;;;;;;20.93;55.61;92448.34;5053130;28;20041;-89
2023/08/06 03:11:34;;;;;;;9.75;6.47;;;;;;;20.92;55.45;92451.66;5063903;28;20462;-91
2023/08/06 03:13:59;;;;;;;10.73;6.25;;;;;;;20.93;55.34;92445.59;5062714;28;20047;-89
2023/08/06 03:16:25;;;;;;;9.38;6.15;;;;;;;20.91;55.52;92442.69;5092761;28;20036;-90
2023/08/06 03:18:50;;;;;;;8.65;6.10;;;;;;;20.93;55.42;92447.63;5060703;28;20040;-90
2023/08/06 03:21:15;;;;;;;10.10;6.65;;;;;;;20.91;55.56;92434.44;5062164;28;20039;-90
2023/08/06 03:23:41;;;;;;;8.90;6.60;;;;;;;20.92;55.71;92444.16;5062710;28;20048;-90
2023/08/06 03:26:06;;;;;;;10.90;7.45;;;;;;;20.90;55.50;92443.97;5081248;28;20044;-91
2023/08/06 03:28:32;;;;;;;9.70;6.15;;;;;;;20.92;55.76;92437.91;5080917;28;20121;-90
2023/08/06 03:31:01;;;;;;;12.40;6.85;;;;;;;20.91;55.54;92437.19;5062505;28;20041;-89
2023/08/06 03:33:26;;;;;;;11.57;7.22;;;;;;;20.91;55.81;92428.94;5062199;28;20119;-92
2023/08/06 03:35:52;;;;;;;10.07;6.97;;;;;;;20.90;55.55;92429.50;5048734;28;20056;-89
2023/08/06 03:38:17;;;;;;;9.18;6.40;;;;;;;20.90;55.55;92416.47;5044177;28;20039;-91
2023/08/06 03:40:43;;;;;;;8.85;6.07;;;;;;;20.92;55.47;92430.41;5066497;28;20052;-90
2023/08/06 03:43:08;;;;;;;9.70;6.40;;;;;;;20.90;55.61;92432.25;5062357;28;20123;-88
2023/08/06 03:45:34;;;;;;;8.63;6.05;;;;;;;20.90;55.50;92432.97;5077101;28;20039;-89
2023/08/06 03:47:59;;;;;;;9.82;6.22;;;;;;;20.89;55.63;92423.25;5076144;28;20040;-90
2023/08/06 03:50:27;;;;;;;10.70;6.70;;;;;;;20.88;55.73;92419.78;5077405;28;20045;-91
2023/08/06 03:52:52;;;;;;;7.78;6.20;;;;;;;20.88;55.57;92424.53;5073261;28;20404;-91
2023/08/06 03:55:17;;;;;;;9.00;6.43;;;;;;;20.89;55.45;92428.75;5033502;28;20048;-91
2023/08/06 03:57:46;;;;;;;10.02;6.35;;;;;;;20.88;55.58;92419.06;5045110;28;20017;-89
2023/08/06 04:00:20;;;;;;;8.35;6.53;;;;;;;20.88;55.64;92428.03;5047255;28;20052;-91
2023/08/06 04:02:46;;;;;;;7.88;6.15;;;;;;;20.88;55.47;92422.53;5066557;28;20036;-90
2023/08/06 04:05:11;;;;;;;8.15;5.57;;;;;;;20.89;55.44;92428.75;5047995;28;20036;-90
2023/08/06 04:07:39;;;;;;;8.52;6.15;;;;;;;20.88;55.63;92428.03;5044910;28;20044;-90
2023/08/06 04:10:05;;;;;;;9.70;6.13;;;;;;;20.87;55.58;92426.56;5066609;28;20040;-90
2023/08/06 04:12:32;;;;;;;9.98;5.93;;;;;;;20.90;55.49;92432.25;5049638;28;20073;-90
2023/08/06 04:14:58;;;;;;;7.60;5.50;;;;;;;20.90;55.43;92432.25;5073481;28;20697;-90
2023/08/06 04:17:23;;;;;;;8.68;5.80;;;;;;;20.88;55.52;92424.53;5039128;28;20057;-91
2023/08/06 04:19:50;;;;;;;7.85;5.65;;;;;;;20.89;55.50;92426.00;5055932;28;20040;-90
2023/08/06 04:22:16;;;;;;;8.48;5.63;;;;;;;20.89;55.65;92423.25;5030490;28;20071;-90
2023/08/06 04:24:43;;;;;;;7.95;5.80;;;;;;;20.88;55.46;92419.06;5055859;28;20049;-91
2023/08/06 04:27:09;;;;;;;9.15;6.43;;;;;;;20.86;55.51;92416.84;5025048;28;20059;-91
2023/08/06 04:29:41;;;;;;;10.35;5.30;;;;;;;20.88;55.51;92419.78;5071049;28;20045;-91
2023/08/06 04:32:08;;;;;;;9.75;5.95;;;;;;;20.89;55.66;92417.75;5083090;28;20052;-90
2023/08/06 04:34:35;;;;;;;7.85;6.38;;;;;;;20.86;55.66;92416.84;5049945;28;20045;-89
2023/08/06 04:37:00;;;;;;;7.65;5.38;;;;;;;20.89;55.40;92420.50;5051507;28;20079;-91
2023/08/06 04:39:26;;;;;;;8.02;5.72;;;;;;;20.87;55.33;92421.06;5060899;28;20041;-91
2023/08/06 04:41:51;;;;;;;7.70;5.43;;;;;;;20.87;55.42;92421.06;5063858;28;20426;-91
2023/08/06 04:44:17;;;;;;;8.15;5.40;;;;;;;20.88;55.45;92417.03;5079336;28;20028;-91
2023/08/06 04:46:42;;;;;;;8.85;5.25;;;;;;;20.88;55.24;92425.28;5063837;28;20037;-89
2023/08/06 04:49:08;;;;;;;9.30;5.47;;;;;;;20.87;55.32;92425.81;5053621;28;20033;-92
2023/08/06 04:51:33;;;;;;;7.57;5.70;;;;;;;20.90;55.36;92418.50;5042899;28;20037;-91
2023/08/06 04:53:59;;;;;;;6.40;4.95;;;;;;;20.87;55.41;92417.59;5070537;28;20051;-92
2023/08/06 04:56:24;;;;;;;8.30;5.38;;;;;;;20.88;55.32;92422.53;5046734;28;20040;-89
2023/08/06 04:58:50;;;;;;;8.27;5.30;;;;;;;20.86;55.21;92422.34;5056779;28;20041;-90
2023/08/06 05:01:15;;;;;;;7.93;5.32;;;;;;;20.86;55.32;92427.84;5062355;28;20041;-91
2023/08/06 05:03:40;;;;;;;8.32;5.68;;;;;;;20.87;55.40;92420.34;5059990;28;20041;-90
2023/08/06 05:06:06;;;;;;;9.60;5.47;;;;;;;20.86;55.34;92416.84;5045443;28;20040;-91
2023/08/06 05:08:31;;;;;;;7.38;5.35;;;;;;;20.86;55.27;92414.09;5063169;28;20033;-90
2023/08/06 05:10:57;;;;;;;6.43;5.40;;;;;;;20.86;55.21;92425.09;5059511;28;20551;-90
2023/08/06 05:13:22;;;;;;;7.07;5.20;;;;;;;20.88;55.26;92419.06;5063503;28;20048;-90
2023/08/06 05:15:48;;;;;;;5.55;4.68;;;;;;;20.86;55.28;92422.34;5079710;28;20044;-90
2023/08/06 05:18:13;;;;;;;9.13;5.57;;;;;;;20.85;55.48;92420.16;5057528;28;20086;-89
2023/08/06 05:20:40;;;;;;;8.25;5.25;;;;;;;20.85;55.39;92422.91;5073307;28;20033;-90
2023/08/06 05:23:05;;;;;;;6.10;4.75;;;;;;;20.86;55.32;92427.09;5042759;28;20048;-91
2023/08/06 05:25:31;;;;;;;8.48;5.57;;;;;;;20.85;55.40;92418.13;5051918;28;20048;-92
2023/08/06 05:27:56;;;;;;;8.00;5.60;;;;;;;20.85;55.40;92414.66;5042719;28;20036;-90
2023/08/06 05:30:22;;;;;;;6.75;5.05;;;;;;;20.85;55.27;92411.91;5057342;28;20041;-91
2023/08/06 05:32:47;;;;;;;5.70;4.85;;;;;;;20.86;55.40;92407.88;5079668;28;20256;-90
2023/08/06 05:35:14;;;;;;;6.47;5.20;;;;;;;20.85;55.19;92418.13;5079027;28;20049;-90
2023/08/06 05:37:39;;;;;;;7.22;5.50;;;;;;;20.85;55.35;92420.16;5077721;28;20107;-90
2023/08/06 05:40:05;;;;;;;8.30;4.90;;;;;;;20.84;55.54;92405.69;5056887;28;20049;-92
2023/08/06 05:42:31;;;;;;;8.05;5.28;;;;;;;20.87;55.39;92412.09;5054850;28;20051;-89
2023/08/06 05:44:57;;;;;;;7.15;5.05;;;;;;;20.85;55.36;92407.16;5063957;28;20037;-91
2023/08/06 05:47:22;;;;;;;7.43;5.25;;;;;;;20.87;55.22;92407.31;5045214;28;20052;-91
2023/08/06 05:49:47;;;;;;;8.00;5.18;;;;;;;20.85;55.36;92404.41;5083603;28;20040;-92
2023/08/06 05:52:13;;;;;;;7.28;5.18;;;;;;;20.86;55.54;92405.13;5074958;28;20064;-90
2023/08/06 05:54:40;;;;;;;8.88;5.72;;;;;;;20.87;55.18;92406.59;5066583;28;20044;-92
2023/08/06 05:57:06;;;;;;;7.25;5.70;;;;;;;20.86;55.45;92411.34;5051205;28;20064;-91
2023/08/06 05:59:32;;;;;;;6.40;4.47;;;;;;;20.85;55.24;92412.63;5067605;28;20151;-91
2023/08/06 06:01:57;;;;;;;7.05;5.05;;;;;;;20.85;55.35;92409.16;5029921;28;20063;-92
2023/08/06 06:04:23;;;;;;;6.43;5.18;;;;;;;20.85;55.26;92412.63;5064790;28;20032;-90
2023/08/06 06:06:48;;;;;;;6.50;4.90;;;;;;;20.87;55.15;92409.34;5047256;28;20040;-90
2023/08/06 06:09:22;;;;;;;8.80;5.57;;;;;;;20.86;55.21;92411.34;5047741;28;20100;-90
2023/08/06 06:11:49;;;;;;;6.78;4.57;;;;;;;20.85;55.29;92407.16;5030142;28;20052;-91
2023/08/06 06:14:16;;;;;;;7.65;5.10;;;;;;;20.85;55.22;92412.63;5047343;28;20047;-92
2023/08/06 06:16:41;;;;;;;5.80;4.65;;;;;;;20.85;55.30;92414.66;5037965;28;20040;-92
2023/08/06 06:19:07;;;;;;;7.05;5.05;;;;;;;20.84;55.40;92407.69;5044380;28;20036;-91
2023/08/06 06:21:34;;;;;;;7.45;5.10;;;;;;;20.84;55.33;92411.16;5043319;28;20050;-92
2023/08/06 06:24:03;;;;;;;6.68;5.35;;;;;;;20.86;55.43;92407.88;5065135;28;20033;-90
2023/08/06 06:26:29;;;;;;;10.57;5.18;;;;;;;20.85;55.47;92418.13;5083789;28;20129;-92
2023/08/06 06:28:55;;;;;;;6.25;4.53;;;;;;;20.86;55.22;92424.34;5067272;28;20040;-91
2023/08/06 06:31:21;;;;;;;6.20;4.95;;;;;;;20.85;55.31;92411.91;5071140;28;20064;-93
2023/08/06 06:33:54;;;;;;;6.13;4.78;;;;;;;20.84;55.37;92402.94;5050932;28;20051;-91
2023/08/06 06:36:19;;;;;;;6.25;5.00;;;;;;;20.85;55.38;92401.66;5066414;28;20041;-91
2023/08/06 06:38:45;;;;;;;7.57;5.10;;;;;;;20.85;55.27;92409.91;5067049;28;20100;-91
2023/08/06 06:41:10;;;;;;;7.05;5.10;;;;;;;20.85;55.14;92415.38;5066106;28;20052;-91
2023/08/06 06:43:37;;;;;;;5.95;4.82;;;;;;;20.86;55.24;92413.38;5081029;28;20047;-92
2023/08/06 06:46:11;;;;;;;6.35;4.35;;;;;;;20.87;55.34;92412.81;5057184;28;20067;-91
2023/08/06 06:48:43;;;;;;;7.82;4.93;;;;;;;20.87;55.39;92404.59;5051206;28;20496;-90
2023/08/06 06:51:17;;;;;;;9.23;5.75;;;;;;;20.86;55.24;92407.88;5034303;28;20052;-90
2023/08/06 06:53:43;;;;;;;6.53;4.63;;;;;;;20.85;55.24;92406.41;5079097;28;20051;-92
2023/08/06 06:56:08;;;;;;;7.75;4.82;;;;;;;20.87;55.19;92403.84;5072265;28;20036;-92
2023/08/06 06:58:35;;;;;;;9.48;6.28;;;;;;;20.85;55.38;92409.91;5055254;28;20054;-91
2023/08/06 07:01:01;;;;;;;7.05;5.45;;;;;;;20.85;55.47;92407.16;5087086;28;20043;-92
2023/08/06 07:03:28;;;;;;;6.13;4.82;;;;;;;20.85;55.28;92418.13;5071258;28;20043;-92
2023/08/06 07:05:57;;;;;;;6.70;4.72;;;;;;;20.88;55.22;92419.06;5072169;28;20128;-92
2023/08/06 07:08:27;;;;;;;5.63;4.90;;;;;;;20.86;55.42;92427.09;5075450;28;20035;-91
2023/08/06 07:11:02;;;;;;;6.50;4.70;;;;;;;20.87;55.34;92421.06;5104272;28;20098;-92
2023/08/06 07:13:29;;;;;;;6.47;4.53;;;;;;;20.86;55.21;92422.34;5050088;28;20045;-92
2023/08/06 07:15:55;;;;;;;6.25;4.63;;;;;;;20.87;55.29;92431.31;5087026;28;20036;-92
2023/08/06 07:18:21;;;;;;;8.15;5.28;;;;;;;20.89;55.23;92423.25;5064527;28;20040;-92
2023/08/06 07:20:53;;;;;;;6.07;4.70;;;;;;;20.88;55.41;92413.56;5049436;28;20036;-91
2023/08/06 07:23:20;;;;;;;5.28;4.03;;;;;;;20.90;55.13;92421.97;5050309;28;20050;-91
2023/08/06 07:25:48;;;;;;;4.78;4.22;;;;;;;20.93;55.12;92429.13;5025877;28;20068;-92
2023/08/06 07:28:14;;;;;;;6.75;4.80;;;;;;;20.92;55.12;92429.66;5009399;28;20037;-91
2023/08/06 07:30:41;;;;;;;8.43;5.18;;;;;;;20.88;55.46;92433.53;5016837;28;20109;-91
2023/08/06 07:33:06;;;;;;;6.85;4.63;;;;;;;20.91;55.13;92434.44;5022773;28;20116;-91
2023/08/06 07:35:32;;;;;;;6.32;4.45;;;;;;;20.88;55.24;92436.25;5008151;28;20041;-90
2023/08/06 07:37:57;;;;;;;6.43;4.30;;;;;;;20.89;55.24;92428.75;5010326;28;20052;-90
2023/08/06 07:40:23;;;;;;;6.82;4.80;;;;;;;20.88;55.24;92435.53;5025498;28;20040;-91
2023/08/06 07:42:49;;;;;;;6.25;4.55;;;;;;;20.89;55.42;92437.00;5024194;28;20037;-90
2023/08/06 07:45:14;;;;;;;7.32;4.55;;;;;;;20.90;55.43;92434.97;5041140;28;20052;-92
2023/08/06 07:47:40;;;;;;;6.55;4.25;;;;;;;20.87;55.21;92423.06;5009431;28;20052;-91
2023/08/06 07:50:07;;;;;;;5.68;4.05;;;;;;;20.88;55.26;92422.53;5024641;28;20098;-90
2023/08/06 07:52:33;;;;;;;5.30;4.20;;;;;;;20.91;55.05;92430.94;5024853;28;20052;-90
2023/08/06 07:54:58;;;;;;;5.60;4.10;;;;;;;20.91;55.04;92430.94;5008672;28;20045;-92
2023/08/06 07:57:24;;;;;;;5.80;4.07;;;;;;;20.88;55.21;92441.03;5027015;28;20040;-90
2023/08/06 07:59:49;;;;;;;5.75;4.20;;;;;;;20.88;55.16;92438.28;5029317;28;20087;-91
2023/08/06 08:02:17;;;;;;;7.05;4.57;;;;;;;20.88;55.07;92428.03;5047063;28;20101;-91
2023/08/06 08:04:42;;;;;;;6.95;4.80;;;;;;;20.88;55.03;92435.53;5032006;28;20047;-90
2023/08/06 08:07:09;;;;;;;6.63;4.28;;;;;;;20.87;55.27;92429.31;5041486;28;20052;-91
2023/08/06 08:09:36;;;;;;;5.75;4.03;;;;;;;20.88;54.96;92433.53;5060509;28;20068;-90
2023/08/06 08:12:02;;;;;;;6.80;4.40;;;;;;;20.89;55.18;92431.50;5015108;28;20499;-92
2023/08/06 08:14:29;;;;;;;6.20;4.40;;;;;;;20.87;55.15;92434.06;5026458;28;20079;-90
2023/08/06 08:16:57;;;;;;;5.55;4.38;;;;;;;20.87;55.28;92426.56;5010730;28;20045;-89
2023/08/06 08:19:22;;;;;;;5.45;4.47;;;;;;;20.87;54.95;92423.06;5058479;28;20044;-91
2023/08/06 08:21:48;;;;;;;6.13;4.40;;;;;;;20.87;55.10;92412.81;5026760;28;20041;-91
2023/08/06 08:24:26;;;;;;;6.05;3.97;;;;;;;20.87;55.15;92412.09;5026451;28;20033;-91
2023/08/06 08:26:52;;;;;;;5.93;4.30;;;;;;;20.87;55.25;92421.06;5076752;28;20037;-91
2023/08/06 08:29:17;;;;;;;6.72;4.20;;;;;;;20.88;55.13;92416.31;5028327;28;20045;-91
2023/08/06 08:31:43;;;;;;;6.15;4.40;;;;;;;20.88;55.44;92406.03;5017792;28;20037;-91
2023/08/06 08:34:10;;;;;;;4.85;4.20;;;;;;;20.88;54.93;92410.81;5013982;28;20297;-93
2023/08/06 08:36:36;;;;;;;6.10;4.63;;;;;;;20.88;55.09;92411.53;5034615;28;20043;-90
2023/08/06 08:39:01;;;;;;;6.57;4.13;;;;;;;20.91;54.93;92400.75;5014972;28;20034;-92
2023/08/06 08:41:31;;;;;;;5.38;3.97;;;;;;;20.88;55.02;92399.81;5028485;28;20120;-91
2023/08/06 08:43:58;;;;;;;5.97;4.50;;;;;;;20.88;55.22;92395.06;5052823;28;20079;-91
2023/08/06 08:46:23;;;;;;;5.38;4.18;;;;;;;20.88;54.82;92400.56;5025876;28;20096;-90
2023/08/06 08:48:50;;;;;;;6.22;4.15;;;;;;;20.88;55.05;92392.31;5032509;28;20052;-91
2023/08/06 08:51:16;;;;;;;5.47;4.28;;;;;;;20.89;55.01;92395.78;5051625;28;20044;-91
2023/08/06 08:53:42;;;;;;;6.18;4.13;;;;;;;20.89;55.08;92395.78;5065724;28;20048;-91
2023/08/06 08:56:07;;;;;;;5.35;4.00;;;;;;;20.92;55.10;92388.47;5052762;28;20044;-90
2023/08/06 08:58:32;;;;;;;5.43;4.07;;;;;;;20.91;55.08;92393.22;5033304;28;20059;-91
2023/08/06 09:01:00;;;;;;;5.25;3.90;;;;;;;20.90;55.21;92394.50;5048239;28;20100;-90
2023/08/06 09:03:25;;;;;;;6.75;4.10;;;;;;;20.90;55.17;92389.00;5064014;28;20036;-90
2023/08/06 09:05:53;;;;;;;4.18;3.40;;;;;;;20.90;55.11;92386.25;5049059;28;20509;-90
2023/08/06 09:08:21;;;;;;;5.53;4.40;;;;;;;20.91;55.12;92392.50;5048347;28;20039;-91
2023/08/06 09:10:48;;;;;;;4.65;3.95;;;;;;;20.88;55.01;92392.31;5056013;28;20044;-91
2023/08/06 09:13:14;;;;;;;4.80;3.80;;;;;;;20.90;55.06;92383.53;5033575;28;20052;-91
2023/08/06 09:15:40;;;;;;;4.80;3.83;;;;;;;20.91;54.94;92387.00;5032221;28;20037;-91
2023/08/06 09:18:10;;;;;;;4.05;3.45;;;;;;;20.91;54.95;92376.00;5031216;28;20044;-91
2023/08/06 09:20:38;;;;;;;4.95;3.90;;;;;;;20.93;54.92;92384.44;5030774;28;20044;-91
2023/08/06 09:23:10;;;;;;;5.20;3.83;;;;;;;20.91;55.10;92378.75;5032553;28;20143;-90
2023/08/06 09:25:39;;;;;;;4.78;3.97;;;;;;;20.91;55.03;92368.50;5034283;28;20039;-90
2023/08/06 09:28:05;;;;;;;5.95;4.20;;;;;;;20.94;54.99;92369.41;5051262;28;20040;-92
2023/08/06 09:30:33;;;;;;;4.28;3.67;;;;;;;20.92;54.97;92366.50;5033970;28;20047;-90
2023/08/06 09:32:59;;;;;;;5.30;3.78;;;;;;;20.94;54.83;92372.91;5083694;28;20048;-92
2023/08/06 09:35:24;;;;;;;5.00;3.85;;;;;;;20.92;54.92;92371.97;5050979;28;20109;-91
2023/08/06 09:37:52;;;;;;;4.40;3.28;;;;;;;20.91;54.96;92365.75;5035665;28;20036;-91
2023/08/06 09:40:26;;;;;;;6.13;4.03;;;;;;;20.94;54.95;92378.38;5066027;28;20037;-91
2023/08/06 09:42:52;;;;;;;4.22;3.45;;;;;;;20.92;54.54;92371.97;5076676;28;20052;-92
2023/08/06 09:45:17;;;;;;;4.55;3.58;;;;;;;20.89;54.24;92362.81;5032769;28;20040;-91
2023/08/06 09:47:43;;;;;;;6.15;3.85;;;;;;;20.87;54.33;92365.38;5042818;28;20048;-91
2023/08/06 09:50:18;;;;;;;6.97;4.20;;;;;;;20.81;54.34;92368.31;5023463;28;20079;-92
2023/08/06 09:54:43;;;;;;;6.40;3.50;;;;;;;20.78;53.99;92372.19;5101118;27;20383;-91
2023/08/06 09:57:08;;;;;;;5.82;3.67;;;;;;;20.73;53.89;92367.63;5082659;28;20047;-91
2023/08/06 09:59:34;;;;;;;4.75;3.78;;;;;;;20.75;54.11;92361.56;5087148;27;20041;-91
2023/08/06 10:02:00;;;;;;;5.68;3.95;;;;;;;20.76;54.19;92376.78;5096732;27;20035;-92
2023/08/06 10:04:27;;;;;;;7.30;3.70;;;;;;;20.84;54.01;92366.50;5107385;27;20031;-91
2023/08/06 10:06:52;;;;;;;7.47;5.05;;;;;;;20.82;53.94;92369.06;5050495;28;20140;-91
2023/08/06 10:09:20;;;;;;;11.48;5.07;;;;;;;20.83;53.95;92367.78;5056705;28;20100;-92
2023/08/06 10:11:50;;;;;;;7.57;4.82;;;;;;;20.83;54.08;92362.28;5040248;28;20090;-91
2023/08/06 10:14:18;;;;;;;6.00;4.50;;;;;;;20.86;53.91;92370.16;5056569;28;20044;-92
2023/08/06 10:16:44;;;;;;;5.25;4.00;;;;;;;20.86;54.45;92381.13;5043477;28;20105;-91
2023/08/06 10:19:10;;;;;;;7.47;4.70;;;;;;;20.86;54.24;92383.16;5047047;28;20041;-90
2023/08/06 10:21:35;;;;;;;7.82;4.68;;;;;;;20.90;54.05;92377.28;5031522;28;20508;-92
2023/08/06 10:24:04;;;;;;;6.93;4.80;;;;;;;20.88;54.24;92384.06;5048369;28;20047;-92
2023/08/06 10:26:29;;;;;;;7.80;4.75;;;;;;;20.91;54.13;92384.97;5062061;28;20136;-92
2023/08/06 10:28:55;;;;;;;6.55;4.97;;;;;;;20.91;54.60;92382.25;5050649;28;20571;-92
2023/08/06 10:31:40;;;;;;;6.63;3.90;;;;;;;20.93;54.35;92385.16;5041705;28;20769;-89
2023/08/06 10:34:06;;;;;;;6.47;3.90;;;;;;;20.91;54.33;92379.50;5049010;28;20037;-92
2023/08/06 10:36:32;;;;;;;6.82;4.15;;;;;;;20.93;54.31;92378.94;5014216;28;20392;-92
2023/08/06 10:38:58;;;;;;;5.45;4.10;;;;;;;20.93;54.64;92382.41;5014857;28;20047;-91
2023/08/06 10:41:28;;;;;;;5.68;4.20;;;;;;;20.97;54.45;92376.56;5014074;28;20045;-91
2023/08/06 10:44:08;;;;;;;5.70;4.27;;;;;;;20.95;54.56;92366.13;5021911;28;20040;-91
2023/08/06 10:46:33;;;;;;;5.70;4.22;;;;;;;20.96;54.58;92369.59;5053499;28;20048;-91
2023/08/06 10:48:59;;;;;;;5.43;3.72;;;;;;;20.94;54.62;92350.91;5052283;28;20075;-91
2023/08/06 10:51:24;;;;;;;4.57;4.03;;;;;;;20.95;54.23;92357.88;5062714;28;20041;-91
2023/08/06 10:53:50;;;;;;;4.72;3.58;;;;;;;20.97;54.74;92360.06;5087287;28;20109;-91
2023/08/06 10:56:17;;;;;;;6.82;3.63;;;;;;;20.97;54.75;92351.84;5025475;28;20048;-91
2023/08/06 10:58:43;;;;;;;5.05;3.65;;;;;;;20.97;54.64;92351.84;5060152;28;20048;-91
2023/08/06 11:01:09;;;;;;;4.03;3.20;;;;;;;20.99;54.51;92363.00;5078521;28;20052;-91
2023/08/06 11:03:35;;;;;;;5.63;4.10;;;;;;;21.01;54.54;92357.66;5072000;28;20048;-91
2023/08/06 11:06:00;;;;;;;6.50;3.75;;;;;;;21.01;54.45;92363.16;5059478;28;20082;-91
2023/08/06 11:08:32;;;;;;;5.00;3.90;;;;;;;20.99;54.64;92357.50;5073270;28;20487;-91
2023/08/06 11:11:08;;;;;;;8.02;3.72;;;;;;;20.99;54.64;92360.25;5050290;28;20055;-91
2023/08/06 11:13:33;;;;;;;5.60;4.18;;;;;;;20.98;54.49;92367.75;5050703;28;20411;-91
2023/08/06 11:15:59;;;;;;;5.78;3.90;;;;;;;20.99;54.57;92355.50;5039203;28;20040;-91
2023/08/06 11:18:24;;;;;;;5.55;3.20;;;;;;;20.98;54.57;92367.03;5055122;28;20434;-90
2023/08/06 11:20:49;;;;;;;5.15;3.63;;;;;;;20.98;54.56;92370.50;5057639;28;20497;-91
2023/08/06 11:23:15;;;;;;;4.55;3.75;;;;;;;20.99;54.69;92374.72;5069806;28;20044;-92
2023/08/06 11:25:44;;;;;;;5.07;3.63;;;;;;;20.98;54.48;92381.50;5045774;28;20101;-93
2023/08/06 11:28:10;;;;;;;6.00;3.35;;;;;;;20.99;54.63;92363.00;5051534;28;20044;-92
2023/08/06 11:30:38;;;;;;;3.88;3.28;;;;;;;21.02;54.29;92370.13;5071584;28;20039;-91